createdAt,value
2023-04-07T00:00:08.388Z,-0.30
2023-04-07T00:02:36.996Z,-0.30
2023-04-07T00:05:05.205Z,-0.20
2023-04-07T00:07:37.341Z,-0.30
2023-04-07T00:10:14.330Z,-0.30
2023-04-07T00:12:42.240Z,-0.20
2023-04-07T00:15:10.958Z,-0.30
2023-04-07T00:17:38.793Z,-0.30
2023-04-07T00:20:07.936Z,-0.30
2023-04-07T00:22:35.677Z,-0.40
2023-04-07T00:25:03.452Z,-0.60
2023-04-07T00:27:32.796Z,-0.60
2023-04-07T00:30:00.624Z,-0.70
2023-04-07T00:32:28.472Z,-0.70
2023-04-07T00:34:56.321Z,-0.80
2023-04-07T00:37:25.535Z,-0.90
2023-04-07T00:39:53.608Z,-1.00
2023-04-07T00:42:21.449Z,-1.10
2023-04-07T00:44:50.560Z,-1.10
2023-04-07T00:47:19.034Z,-1.10
2023-04-07T00:49:46.843Z,-1.20
2023-04-07T00:52:16.017Z,-1.30
2023-04-07T00:54:46.656Z,-1.30
2023-04-07T00:57:14.442Z,-1.30
2023-04-07T00:59:42.301Z,-1.30
2023-04-07T01:02:17.269Z,-1.30
2023-04-07T01:04:50.461Z,-1.40
2023-04-07T01:07:24.394Z,-1.30
2023-04-07T01:10:00.516Z,-1.20
2023-04-07T01:12:35.971Z,-1.30
2023-04-07T01:15:11.600Z,-1.40
2023-04-07T01:17:46.304Z,-1.40
2023-04-07T01:20:17.736Z,-1.40
2023-04-07T01:22:51.270Z,-1.50
2023-04-07T01:25:36.508Z,-1.50
2023-04-07T01:28:25.364Z,-1.60
2023-04-07T01:30:57.812Z,-1.50
2023-04-07T01:33:28.140Z,-1.50
2023-04-07T01:35:57.874Z,-1.50
2023-04-07T01:38:26.907Z,-1.60
2023-04-07T01:40:56.149Z,-1.60
2023-04-07T01:43:25.468Z,-1.60
2023-04-07T01:45:56.021Z,-1.50
2023-04-07T01:48:24.105Z,-1.60
2023-04-07T01:50:52.676Z,-1.60
2023-04-07T01:53:21.143Z,-1.50
2023-04-07T01:55:48.986Z,-1.30
2023-04-07T01:58:16.802Z,-1.20
2023-04-07T02:00:44.599Z,-1.10
2023-04-07T02:03:21.282Z,-1.10
2023-04-07T02:05:53.285Z,-1.20
2023-04-07T02:08:24.268Z,-1.30
2023-04-07T02:10:52.685Z,-1.30
2023-04-07T02:13:21.880Z,-1.30
2023-04-07T02:15:50.405Z,-1.30
2023-04-07T02:18:21.321Z,-1.30
2023-04-07T02:20:49.715Z,-1.40
2023-04-07T02:23:17.864Z,-1.40
2023-04-07T02:25:45.679Z,-1.40
2023-04-07T02:28:13.428Z,-1.40
2023-04-07T02:30:41.321Z,-1.20
2023-04-07T02:33:09.163Z,-1.10
2023-04-07T02:35:38.274Z,-1.00
2023-04-07T02:38:06.128Z,-0.90
2023-04-07T02:40:33.861Z,-0.90
2023-04-07T02:43:01.576Z,-1.10
2023-04-07T02:45:29.743Z,-1.00
2023-04-07T02:47:57.630Z,-1.10
2023-04-07T02:50:26.110Z,-1.30
2023-04-07T02:52:55.218Z,-1.30
2023-04-07T02:55:22.950Z,-1.40
2023-04-07T02:57:50.726Z,-1.30
2023-04-07T03:00:18.755Z,-1.40
2023-04-07T03:02:46.603Z,-1.50
2023-04-07T03:05:14.493Z,-1.40
2023-04-07T03:07:42.247Z,-1.30
2023-04-07T03:10:12.124Z,-1.50
2023-04-07T03:12:40.024Z,-1.50
2023-04-07T03:15:08.945Z,-1.50
2023-04-07T03:17:36.749Z,-1.60
2023-04-07T03:20:04.880Z,-1.50
2023-04-07T03:22:33.194Z,-1.50
2023-04-07T03:25:01.069Z,-1.40
2023-04-07T03:27:30.212Z,-1.30
2023-04-07T03:29:58.587Z,-1.30
2023-04-07T03:32:26.387Z,-1.40
2023-04-07T03:34:54.150Z,-1.40
2023-04-07T03:37:22.012Z,-1.40
2023-04-07T03:39:50.886Z,-1.40
2023-04-07T03:42:19.769Z,-1.30
2023-04-07T03:44:48.966Z,-1.40
2023-04-07T03:47:16.677Z,-1.40
2023-04-07T03:49:44.439Z,-1.40
2023-04-07T03:52:12.226Z,-1.40
2023-04-07T03:54:40.111Z,-1.40
2023-04-07T03:57:08.271Z,-1.40
2023-04-07T03:59:36.492Z,-1.30
2023-04-07T04:02:05.587Z,-1.30
2023-04-07T04:04:33.475Z,-1.30
2023-04-07T04:07:01.556Z,-1.30
2023-04-07T04:09:29.768Z,-1.30
2023-04-07T04:11:57.718Z,-1.20
2023-04-07T04:14:25.494Z,-1.20
2023-04-07T04:16:53.231Z,-1.10
2023-04-07T04:19:22.397Z,-1.10
2023-04-07T04:21:50.134Z,-1.10
2023-04-07T04:24:17.954Z,-1.10
2023-04-07T04:26:45.883Z,-1.10
2023-04-07T04:29:13.621Z,-1.10
2023-04-07T04:31:41.533Z,-1.10
2023-04-07T04:34:09.307Z,-1.10
2023-04-07T04:36:39.064Z,-1.10
2023-04-07T04:39:06.844Z,-1.00
2023-04-07T04:41:34.543Z,-0.80
2023-04-07T04:44:02.329Z,-0.60
2023-04-07T04:46:30.173Z,-0.40
2023-04-07T04:48:58.124Z,-0.30
2023-04-07T04:51:26.091Z,-0.20
2023-04-07T04:53:55.701Z,-0.10
2023-04-07T04:56:23.525Z,-0.10
2023-04-07T04:58:51.443Z,-0.10
2023-04-07T05:01:19.192Z,-0.10
2023-04-07T05:03:47.117Z,0.10
2023-04-07T05:06:14.959Z,0.20
2023-04-07T05:08:42.707Z,0.40
2023-04-07T05:11:12.768Z,0.50
2023-04-07T05:13:40.521Z,0.60
2023-04-07T05:16:08.787Z,0.70
2023-04-07T05:18:36.579Z,0.80
2023-04-07T05:21:04.514Z,0.70
2023-04-07T05:23:32.253Z,0.60
2023-04-07T05:26:00.023Z,0.60
2023-04-07T05:28:29.149Z,0.50
2023-04-07T05:30:56.857Z,0.70
2023-04-07T05:33:24.589Z,0.70
2023-04-07T05:35:52.313Z,0.70
2023-04-07T05:38:20.578Z,0.70
2023-04-07T05:40:48.454Z,0.70
2023-04-07T05:43:16.187Z,0.80
2023-04-07T05:45:45.310Z,0.90
2023-04-07T05:48:13.111Z,0.90
2023-04-07T05:50:41.000Z,1.00
2023-04-07T05:53:08.766Z,1.10
2023-04-07T05:55:36.493Z,1.20
2023-04-07T05:58:04.521Z,1.30
2023-04-07T06:00:32.304Z,1.50
2023-04-07T06:03:01.951Z,1.70
2023-04-07T06:05:29.765Z,1.90
2023-04-07T06:07:57.576Z,2.20
2023-04-07T06:10:25.304Z,2.40
2023-04-07T06:12:53.059Z,2.60
2023-04-07T06:15:20.798Z,2.80
2023-04-07T06:17:48.567Z,3.10
2023-04-07T06:20:17.656Z,3.30
2023-04-07T06:22:45.401Z,3.40
2023-04-07T06:25:13.133Z,3.40
2023-04-07T06:27:41.085Z,3.40
2023-04-07T06:30:10.296Z,3.30
2023-04-07T06:32:38.052Z,3.20
2023-04-07T06:35:06.648Z,3.30
2023-04-07T06:37:35.900Z,3.20
2023-04-07T06:40:03.702Z,3.20
2023-04-07T06:42:31.694Z,3.20
2023-04-07T06:44:59.449Z,3.20
2023-04-07T06:47:28.226Z,3.20
2023-04-07T06:49:56.040Z,3.20
2023-04-07T06:52:23.727Z,3.30
2023-04-07T06:54:52.807Z,3.50
2023-04-07T06:57:20.516Z,3.80
2023-04-07T06:59:48.435Z,4.00
2023-04-07T07:02:16.352Z,4.40
2023-04-07T07:04:44.280Z,4.50
2023-04-07T07:07:12.316Z,4.70
2023-04-07T07:09:40.163Z,4.90
2023-04-07T07:12:09.340Z,5.20
2023-04-07T07:14:37.287Z,5.20
2023-04-07T07:17:05.146Z,5.30
2023-04-07T07:19:32.906Z,5.40
2023-04-07T07:22:00.814Z,5.40
2023-04-07T07:24:29.282Z,5.50
2023-04-07T07:26:57.783Z,5.50
2023-04-07T07:29:27.283Z,5.40
2023-04-07T07:31:55.213Z,5.80
2023-04-07T07:34:24.010Z,6.30
2023-04-07T07:36:51.717Z,6.90
2023-04-07T07:39:19.557Z,7.30
2023-04-07T07:41:47.703Z,7.60
2023-04-07T07:44:15.420Z,7.80
2023-04-07T07:46:44.473Z,8.20
2023-04-07T07:49:12.445Z,8.40
2023-04-07T07:51:40.241Z,8.00
2023-04-07T07:54:08.053Z,7.90
2023-04-07T07:56:35.804Z,8.00
2023-04-07T07:59:03.614Z,8.20
2023-04-07T08:01:31.910Z,8.20
2023-04-07T08:04:01.215Z,8.20
2023-04-07T08:06:31.541Z,8.20
2023-04-07T08:08:59.454Z,8.30
2023-04-07T08:11:27.198Z,8.20
2023-04-07T08:13:55.559Z,7.90
2023-04-07T08:16:24.134Z,8.00
2023-04-07T08:18:51.897Z,8.20
2023-04-07T08:21:21.105Z,8.00
2023-04-07T08:23:49.149Z,8.40
2023-04-07T08:26:17.104Z,8.50
2023-04-07T08:28:44.819Z,8.40
2023-04-07T08:31:12.777Z,8.40
2023-04-07T08:33:40.648Z,8.40
2023-04-07T08:36:08.645Z,8.70
2023-04-07T08:38:37.752Z,8.60
2023-04-07T08:41:09.098Z,8.50
2023-04-07T08:43:37.873Z,8.40
2023-04-07T08:46:06.699Z,8.20
2023-04-07T08:48:35.949Z,7.90
2023-04-07T08:51:08.184Z,7.50
2023-04-07T08:53:46.226Z,7.50
2023-04-07T08:56:14.559Z,7.70
2023-04-07T08:58:42.911Z,7.70
2023-04-07T09:01:11.587Z,7.80
2023-04-07T09:03:40.010Z,8.00
2023-04-07T09:06:07.965Z,8.50
2023-04-07T09:08:37.042Z,8.90
2023-04-07T09:11:05.417Z,9.20
2023-04-07T09:13:33.526Z,9.40
2023-04-07T09:16:03.279Z,9.50
2023-04-07T09:18:31.408Z,9.50
2023-04-07T09:21:01.232Z,9.50
2023-04-07T09:23:31.172Z,9.30
2023-04-07T09:26:01.872Z,9.20
2023-04-07T09:28:46.010Z,9.20
2023-04-07T09:31:14.030Z,9.20
2023-04-07T09:33:41.988Z,9.00
2023-04-07T09:36:10.529Z,8.80
2023-04-07T09:38:39.938Z,8.70
2023-04-07T09:41:10.596Z,8.30
2023-04-07T09:43:39.924Z,8.20
2023-04-07T09:46:12.290Z,8.30
2023-04-07T09:48:40.906Z,8.40
2023-04-07T09:51:10.473Z,8.10
2023-04-07T09:53:46.528Z,8.00
2023-04-07T09:56:17.326Z,8.20
2023-04-07T09:58:47.058Z,8.40
2023-04-07T10:01:16.812Z,8.60
2023-04-07T10:03:46.881Z,8.50
2023-04-07T10:06:15.125Z,8.50
2023-04-07T10:08:44.329Z,8.50
2023-04-07T10:11:12.480Z,8.30
2023-04-07T10:13:42.155Z,8.40
2023-04-07T10:16:09.929Z,8.60
2023-04-07T10:18:39.759Z,8.60
2023-04-07T10:21:10.650Z,8.50
2023-04-07T10:23:49.999Z,8.40
2023-04-07T10:26:19.143Z,8.60
2023-04-07T10:28:52.500Z,8.60
2023-04-07T10:31:21.350Z,8.70
2023-04-07T10:33:51.219Z,8.80
2023-04-07T10:36:20.428Z,8.80
2023-04-07T10:39:22.716Z,8.40
2023-04-07T10:41:51.866Z,8.20
2023-04-07T10:45:00.982Z,8.00
2023-04-07T10:47:30.240Z,8.00
2023-04-07T10:50:19.955Z,8.00
2023-04-07T10:52:48.831Z,8.20
2023-04-07T10:55:37.710Z,8.20
2023-04-07T10:58:19.349Z,8.00
2023-04-07T11:01:21.721Z,8.00
2023-04-07T11:04:11.799Z,7.90
2023-04-07T11:06:48.198Z,8.10
2023-04-07T11:09:20.307Z,8.20
2023-04-07T11:11:48.773Z,8.50
2023-04-07T11:14:28.187Z,8.50
2023-04-07T11:16:56.332Z,8.10
2023-04-07T11:19:26.031Z,7.90
2023-04-07T11:22:29.293Z,7.80
2023-04-07T11:24:58.080Z,7.70
2023-04-07T11:27:27.012Z,7.70
2023-04-07T11:29:54.744Z,7.80
2023-04-07T11:32:25.840Z,7.80
2023-04-07T11:34:54.184Z,8.00
2023-04-07T11:37:24.567Z,8.20
2023-04-07T11:39:55.499Z,8.30
2023-04-07T11:42:36.131Z,8.20
2023-04-07T11:45:06.013Z,7.90
2023-04-07T11:47:36.831Z,7.70
2023-04-07T11:50:04.937Z,7.60
2023-04-07T11:52:43.661Z,7.70
2023-04-07T11:55:21.990Z,7.70
2023-04-07T11:57:51.282Z,7.90
2023-04-07T12:00:20.395Z,8.00
2023-04-07T12:02:48.477Z,8.00
2023-04-07T12:05:17.217Z,8.30
2023-04-07T12:07:55.571Z,8.60
2023-04-07T12:10:25.650Z,8.50
2023-04-07T12:12:53.592Z,8.50
2023-04-07T12:15:22.532Z,8.80
2023-04-07T12:17:50.693Z,8.60
2023-04-07T12:20:18.833Z,8.60
2023-04-07T12:22:46.588Z,8.40
2023-04-07T12:25:15.896Z,8.40
2023-04-07T12:27:44.116Z,8.40
2023-04-07T12:30:13.500Z,8.20
2023-04-07T12:32:41.930Z,7.90
2023-04-07T12:35:09.793Z,8.00
2023-04-07T12:37:37.620Z,8.10
2023-04-07T12:40:06.208Z,8.50
2023-04-07T12:42:35.684Z,8.40
2023-04-07T12:45:03.490Z,8.00
2023-04-07T12:47:32.160Z,7.90
2023-04-07T12:50:00.048Z,8.00
2023-04-07T12:52:27.834Z,7.70
2023-04-07T12:54:55.650Z,7.50
2023-04-07T12:57:23.697Z,7.30
2023-04-07T12:59:53.316Z,7.00
2023-04-07T13:02:21.263Z,6.90
2023-04-07T13:04:49.105Z,6.70
2023-04-07T13:07:17.187Z,6.60
2023-04-07T13:09:44.932Z,6.60
2023-04-07T13:12:13.647Z,6.60
2023-04-07T13:14:52.809Z,6.50
2023-04-07T13:17:22.478Z,6.70
2023-04-07T13:19:50.720Z,6.80
2023-04-07T13:22:21.904Z,6.90
2023-04-07T13:24:51.412Z,6.70
2023-04-07T13:27:19.158Z,6.60
2023-04-07T13:29:47.252Z,6.80
2023-04-07T13:32:15.579Z,6.70
2023-04-07T13:34:45.542Z,6.60
2023-04-07T13:37:13.288Z,6.40
2023-04-07T13:39:41.242Z,6.20
2023-04-07T13:42:11.456Z,6.20
2023-04-07T13:44:40.516Z,6.10
2023-04-07T13:47:08.721Z,6.20
2023-04-07T13:49:36.922Z,6.20
2023-04-07T13:52:06.808Z,6.40
2023-04-07T13:54:34.663Z,6.50
2023-04-07T13:57:02.643Z,6.50
2023-04-07T13:59:30.575Z,6.40
2023-04-07T14:01:58.498Z,6.30
2023-04-07T14:04:27.329Z,6.30
2023-04-07T14:06:56.044Z,6.30
2023-04-07T14:09:25.124Z,6.60
2023-04-07T14:11:52.934Z,6.80
2023-04-07T14:14:20.787Z,6.90
2023-04-07T14:16:50.888Z,6.70
2023-04-07T14:19:18.811Z,6.90
2023-04-07T14:21:46.565Z,6.80
2023-04-07T14:24:22.257Z,6.70
2023-04-07T14:26:51.065Z,6.70
2023-04-07T14:29:18.810Z,6.70
2023-04-07T14:31:48.593Z,6.50
2023-04-07T14:34:16.553Z,6.40
2023-04-07T14:36:54.361Z,6.20
2023-04-07T14:39:24.044Z,6.40
2023-04-07T14:41:51.984Z,6.40
2023-04-07T14:44:19.743Z,6.40
2023-04-07T14:46:48.258Z,6.30
2023-04-07T14:49:16.653Z,6.30
2023-04-07T14:51:45.282Z,6.30
2023-04-07T14:54:13.154Z,6.30
2023-04-07T14:56:42.424Z,6.30
2023-04-07T14:59:10.343Z,6.20
2023-04-07T15:01:38.782Z,6.10
2023-04-07T15:04:06.687Z,6.00
2023-04-07T15:06:34.483Z,6.00
2023-04-07T15:09:02.190Z,6.00
2023-04-07T15:11:29.935Z,6.00
2023-04-07T15:14:00.802Z,6.00
2023-04-07T15:16:28.720Z,6.00
2023-04-07T15:18:56.628Z,6.00
2023-04-07T15:21:24.405Z,6.00
2023-04-07T15:23:52.252Z,6.00
2023-04-07T15:26:20.025Z,6.00
2023-04-07T15:28:47.859Z,6.00
2023-04-07T15:31:16.950Z,6.00
2023-04-07T15:33:46.277Z,5.90
2023-04-07T15:36:14.051Z,5.90
2023-04-07T15:38:42.217Z,5.90
2023-04-07T15:41:10.039Z,5.90
2023-04-07T15:43:37.808Z,5.90
2023-04-07T15:46:05.698Z,5.90
2023-04-07T15:48:34.843Z,5.90
2023-04-07T15:51:02.600Z,5.90
2023-04-07T15:53:31.049Z,6.00
2023-04-07T15:55:59.080Z,5.90
2023-04-07T15:58:26.910Z,5.80
2023-04-07T16:00:54.751Z,5.90
2023-04-07T16:03:22.787Z,5.90
2023-04-07T16:05:52.077Z,5.90
2023-04-07T16:08:19.873Z,5.90
2023-04-07T16:10:47.613Z,5.90
2023-04-07T16:13:15.394Z,6.00
2023-04-07T16:15:43.264Z,6.00
2023-04-07T16:18:12.167Z,5.90
2023-04-07T16:20:40.172Z,5.90
2023-04-07T16:23:09.992Z,5.80
2023-04-07T16:25:37.725Z,5.80
2023-04-07T16:28:05.639Z,5.80
2023-04-07T16:30:33.420Z,5.80
2023-04-07T16:33:01.596Z,5.70
2023-04-07T16:35:30.220Z,5.80
2023-04-07T16:38:01.708Z,5.70
2023-04-07T16:40:30.963Z,5.80
2023-04-07T16:42:58.874Z,5.80
2023-04-07T16:45:26.745Z,5.80
2023-04-07T16:47:54.637Z,5.70
2023-04-07T16:50:22.552Z,5.70
2023-04-07T16:52:50.312Z,5.70
2023-04-07T16:55:18.097Z,5.70
2023-04-07T16:57:48.251Z,5.70
2023-04-07T17:00:16.595Z,5.70
2023-04-07T17:02:44.523Z,5.70
2023-04-07T17:05:12.576Z,5.60
2023-04-07T17:07:40.353Z,5.60
2023-04-07T17:10:09.324Z,5.60
2023-04-07T17:12:37.091Z,5.60
2023-04-07T17:15:06.977Z,5.60
2023-04-07T17:17:34.846Z,5.60
2023-04-07T17:20:03.419Z,5.60
2023-04-07T17:22:31.572Z,5.50
2023-04-07T17:24:59.433Z,5.50
2023-04-07T17:27:29.727Z,5.50
2023-04-07T17:29:57.577Z,5.60
2023-04-07T17:32:27.243Z,5.50
2023-04-07T17:34:55.211Z,5.50
2023-04-07T17:37:23.100Z,5.50
2023-04-07T17:39:50.865Z,5.50
2023-04-07T17:42:18.649Z,5.50
2023-04-07T17:44:46.975Z,5.40
2023-04-07T17:47:14.829Z,5.40
2023-04-07T17:49:43.873Z,5.40
2023-04-07T17:52:12.172Z,5.40
2023-04-07T17:54:39.900Z,5.40
2023-04-07T17:57:08.400Z,5.40
2023-04-07T17:59:36.122Z,5.40
2023-04-07T18:02:08.953Z,5.30
2023-04-07T18:04:37.866Z,5.30
2023-04-07T18:07:07.469Z,5.40
2023-04-07T18:09:35.423Z,5.30
2023-04-07T18:12:03.601Z,5.30
2023-04-07T18:14:31.383Z,5.40
2023-04-07T18:16:59.198Z,5.30
2023-04-07T18:19:29.863Z,5.30
2023-04-07T18:21:57.678Z,5.30
2023-04-07T18:24:26.745Z,5.30
2023-04-07T18:26:54.627Z,5.30
2023-04-07T18:29:22.370Z,5.30
2023-04-07T18:31:50.202Z,5.30
2023-04-07T18:34:17.992Z,5.30
2023-04-07T18:36:47.653Z,5.30
2023-04-07T18:39:15.458Z,5.30
2023-04-07T18:41:46.370Z,5.30
2023-04-07T18:44:14.401Z,5.30
2023-04-07T18:46:42.326Z,5.40
2023-04-07T18:49:10.499Z,5.40
2023-04-07T18:51:38.317Z,5.30
2023-04-07T18:54:06.290Z,5.30
2023-04-07T18:56:34.720Z,5.30
2023-04-07T18:59:03.859Z,5.30
2023-04-07T19:01:32.415Z,5.40
2023-04-07T19:04:01.300Z,5.50
2023-04-07T19:06:30.494Z,5.40
2023-04-07T19:08:58.273Z,5.40
2023-04-07T19:11:27.009Z,5.40
2023-04-07T19:13:56.374Z,5.40
2023-04-07T19:16:25.833Z,5.40
2023-04-07T19:18:53.804Z,5.40
2023-04-07T19:21:21.625Z,5.40
2023-04-07T19:23:49.558Z,5.40
2023-04-07T19:26:17.757Z,5.40
2023-04-07T19:28:46.226Z,5.40
2023-04-07T19:31:14.021Z,5.40
2023-04-07T19:33:43.807Z,5.40
2023-04-07T19:36:12.117Z,5.50
2023-04-07T19:38:39.949Z,5.40
2023-04-07T19:41:07.720Z,5.50
2023-04-07T19:43:35.457Z,5.40
2023-04-07T19:46:04.969Z,5.40
2023-04-07T19:48:32.755Z,5.40
2023-04-07T19:51:02.131Z,5.40
2023-04-07T19:53:29.874Z,5.40
2023-04-07T19:55:57.660Z,5.40
2023-04-07T19:58:26.486Z,5.40
2023-04-07T20:00:55.098Z,5.40
2023-04-07T20:03:23.173Z,5.40
2023-04-07T20:05:52.856Z,5.30
2023-04-07T20:08:21.970Z,5.30
2023-04-07T20:10:51.907Z,5.40
2023-04-07T20:13:20.371Z,5.30
2023-04-07T20:15:49.117Z,5.30
2023-04-07T20:18:18.496Z,5.40
2023-04-07T20:20:46.628Z,5.40
2023-04-07T20:23:15.956Z,5.40
2023-04-07T20:25:45.102Z,5.40
2023-04-07T20:28:12.833Z,5.40
2023-04-07T20:30:40.694Z,5.40
2023-04-07T20:33:08.596Z,5.40
2023-04-07T20:35:37.247Z,5.30
2023-04-07T20:38:05.029Z,5.30
2023-04-07T20:40:35.625Z,5.30
2023-04-07T20:43:04.925Z,5.40
2023-04-07T20:45:33.134Z,5.40
2023-04-07T20:48:01.490Z,5.40
2023-04-07T20:50:29.575Z,5.30
2023-04-07T20:52:57.388Z,5.40
2023-04-07T20:55:25.148Z,5.50
2023-04-07T20:57:54.360Z,5.40
2023-04-07T21:00:23.720Z,5.40
2023-04-07T21:02:51.872Z,5.40
2023-04-07T21:05:20.700Z,5.40
2023-04-07T21:07:48.572Z,5.40
2023-04-07T21:10:16.494Z,5.40
2023-04-07T21:12:44.260Z,5.40
2023-04-07T21:15:12.423Z,5.40
2023-04-07T21:17:41.608Z,5.40
2023-04-07T21:20:10.669Z,5.40
2023-04-07T21:22:38.379Z,5.40
2023-04-07T21:25:07.161Z,5.40
2023-04-07T21:27:35.995Z,5.40
2023-04-07T21:30:05.641Z,5.40
2023-04-07T21:32:34.024Z,5.40
2023-04-07T21:35:03.744Z,5.40
2023-04-07T21:37:31.502Z,5.40
2023-04-07T21:39:59.249Z,5.40
2023-04-07T21:42:27.412Z,5.40
2023-04-07T21:44:55.157Z,5.30
2023-04-07T21:47:22.944Z,5.30
2023-04-07T21:49:50.799Z,5.30
2023-04-07T21:52:20.040Z,5.30
2023-04-07T21:54:47.933Z,5.40
2023-04-07T21:57:15.688Z,5.40
2023-04-07T21:59:43.463Z,5.40
2023-04-07T22:02:12.836Z,5.50
2023-04-07T22:04:40.962Z,5.40
2023-04-07T22:07:08.746Z,5.40
2023-04-07T22:09:37.923Z,5.30
2023-04-07T22:12:05.723Z,5.30
2023-04-07T22:14:33.653Z,5.30
2023-04-07T22:17:01.618Z,5.30
2023-04-07T22:19:29.364Z,5.40
2023-04-07T22:21:57.055Z,5.30
2023-04-07T22:24:24.864Z,5.30
2023-04-07T22:26:55.331Z,5.30
2023-04-07T22:29:23.153Z,5.30
2023-04-07T22:31:50.901Z,5.30
2023-04-07T22:34:19.155Z,5.40
2023-04-07T22:36:47.186Z,5.40
2023-04-07T22:39:14.923Z,5.30
2023-04-07T22:41:42.637Z,5.30
2023-04-07T22:44:11.663Z,5.30
2023-04-07T22:46:39.475Z,5.30
2023-04-07T22:49:07.456Z,5.30
2023-04-07T22:51:35.289Z,5.30
2023-04-07T22:54:03.059Z,5.30
2023-04-07T22:56:31.187Z,5.20
2023-04-07T22:59:05.111Z,5.20
2023-04-07T23:01:34.411Z,5.20
2023-04-07T23:04:02.169Z,5.20
2023-04-07T23:06:29.937Z,5.20
2023-04-07T23:08:57.700Z,5.20
2023-04-07T23:11:25.526Z,5.30
2023-04-07T23:13:53.269Z,5.30
2023-04-07T23:16:21.085Z,5.30
2023-04-07T23:18:50.341Z,5.30
2023-04-07T23:21:18.271Z,5.30
2023-04-07T23:23:45.978Z,5.20
2023-04-07T23:26:13.737Z,5.20
2023-04-07T23:28:41.610Z,5.30
2023-04-07T23:31:09.335Z,5.20
2023-04-07T23:33:37.080Z,5.30
2023-04-07T23:36:06.965Z,5.30
2023-04-07T23:38:36.264Z,5.30
2023-04-07T23:41:04.166Z,5.30
2023-04-07T23:43:32.396Z,5.30
2023-04-07T23:46:00.177Z,5.30
2023-04-07T23:48:27.946Z,5.30
2023-04-07T23:50:56.017Z,5.30
2023-04-07T23:53:25.068Z,5.30
2023-04-07T23:55:52.818Z,5.20
2023-04-07T23:58:20.528Z,5.30
